Weather in selectable METAR weather stations

1) Select the Continent / Group:

[Europe]  [Asia]  [Africa]  [North America]  [South America]  
[Central America and Caribbean]  [Oceania]  [Antarctica]  
2) Select the Weather station (City):


METAR = DAUA 250300Z 01014KT 7000 SCT046 SCT130 25/11 Q1012

STATIONDAUA
NAMEAdrar/Belkebir Arpt, AD, AL
OBSERVED25.05.2020 04:00 (25.05.2020 03:00 UTC), 65 min ago
TEMPERATURE25.0°C ( 77°F)
WINDN (10 degrees) at 16 MPH (14 knots; 7.2 m/s)
HUMIDITY41%
HEATINDEX25.6°C (78°F)
PRESSURE1011.9 hPa
Click here to search the weather station or to give the station identifier
(four-character ICAO Location Indicator) for weather data.